sensor_id;sensor_type;location;lat;lon;timestamp;pressure;altitude;pressure_sealevel;temperature;humidity
54600;BME280;40500;51.084;16.958;2023-07-28T00:01:09;99349.08;;;16.43;100.00
54600;BME280;40500;51.084;16.958;2023-07-28T00:03:42;99344.12;;;16.43;100.00
54600;BME280;40500;51.084;16.958;2023-07-28T00:06:14;99350.61;;;16.44;100.00
54600;BME280;40500;51.084;16.958;2023-07-28T00:08:47;99350.58;;;16.45;100.00
54600;BME280;40500;51.084;16.958;2023-07-28T00:11:20;99346.21;;;16.44;100.00
54600;BME280;40500;51.084;16.958;2023-07-28T00:13:54;99348.02;;;16.43;100.00
54600;BME280;40500;51.084;16.958;2023-07-28T00:16:28;99343.26;;;16.43;100.00
54600;BME280;40500;51.084;16.958;2023-07-28T00:19:09;99334.19;;;16.44;100.00
54600;BME280;40500;51.084;16.958;2023-07-28T00:21:41;99332.20;;;16.45;100.00
54600;BME280;40500;51.084;16.958;2023-07-28T00:24:13;99328.11;;;16.42;100.00
54600;BME280;40500;51.084;16.958;2023-07-28T00:26:47;99329.33;;;16.43;100.00
54600;BME280;40500;51.084;16.958;2023-07-28T00:29:22;99327.07;;;16.42;100.00
54600;BME280;40500;51.084;16.958;2023-07-28T00:31:55;99324.59;;;16.42;100.00
54600;BME280;40500;51.084;16.958;2023-07-28T00:34:32;99320.74;;;16.41;100.00
54600;BME280;40500;51.084;16.958;2023-07-28T00:37:05;99315.41;;;16.42;100.00
54600;BME280;40500;51.084;16.958;2023-07-28T00:39:48;99316.35;;;16.44;100.00
54600;BME280;40500;51.084;16.958;2023-07-28T00:42:20;99310.92;;;16.46;100.00
54600;BME280;40500;51.084;16.958;2023-07-28T00:44:52;99306.24;;;16.48;100.00
54600;BME280;40500;51.084;16.958;2023-07-28T00:47:26;99305.29;;;16.49;100.00
54600;BME280;40500;51.084;16.958;2023-07-28T00:49:58;99306.98;;;16.50;100.00
54600;BME280;40500;51.084;16.958;2023-07-28T00:52:29;99306.09;;;16.50;100.00
54600;BME280;40500;51.084;16.958;2023-07-28T00:55:01;99301.30;;;16.51;100.00
54600;BME280;40500;51.084;16.958;2023-07-28T00:57:52;99305.23;;;16.53;100.00
54600;BME280;40500;51.084;16.958;2023-07-28T01:00:25;99305.00;;;16.54;100.00
54600;BME280;40500;51.084;16.958;2023-07-28T01:02:57;99298.36;;;16.56;100.00
54600;BME280;40500;51.084;16.958;2023-07-28T01:05:39;99294.59;;;16.57;100.00
54600;BME280;40500;51.084;16.958;2023-07-28T01:08:29;99291.48;;;16.58;100.00
54600;BME280;40500;51.084;16.958;2023-07-28T01:11:08;99293.36;;;16.59;100.00
54600;BME280;40500;51.084;16.958;2023-07-28T01:13:40;99292.46;;;16.59;100.00
54600;BME280;40500;51.084;16.958;2023-07-28T01:16:17;99285.70;;;16.60;100.00
54600;BME280;40500;51.084;16.958;2023-07-28T01:18:48;99284.97;;;16.61;100.00
54600;BME280;40500;51.084;16.958;2023-07-28T01:21:25;99283.63;;;16.63;100.00
54600;BME280;40500;51.084;16.958;2023-07-28T01:24:06;99277.36;;;16.64;100.00
54600;BME280;40500;51.084;16.958;2023-07-28T01:26:45;99273.60;;;16.65;100.00
54600;BME280;40500;51.084;16.958;2023-07-28T01:29:17;99270.91;;;16.66;100.00
54600;BME280;40500;51.084;16.958;2023-07-28T01:31:50;99277.23;;;16.66;100.00
54600;BME280;40500;51.084;16.958;2023-07-28T01:34:22;99268.72;;;16.67;100.00
54600;BME280;40500;51.084;16.958;2023-07-28T01:37:01;99269.03;;;16.68;100.00
54600;BME280;40500;51.084;16.958;2023-07-28T01:39:34;99271.65;;;16.68;100.00
54600;BME280;40500;51.084;16.958;2023-07-28T01:42:13;99267.92;;;16.68;100.00
54600;BME280;40500;51.084;16.958;2023-07-28T01:44:47;99259.09;;;16.69;100.00
54600;BME280;40500;51.084;16.958;2023-07-28T01:47:18;99255.02;;;16.69;100.00
54600;BME280;40500;51.084;16.958;2023-07-28T01:49:51;99247.72;;;16.69;100.00
54600;BME280;40500;51.084;16.958;2023-07-28T01:52:22;99238.50;;;16.70;100.00
54600;BME280;40500;51.084;16.958;2023-07-28T01:54:53;99231.27;;;16.70;100.00
54600;BME280;40500;51.084;16.958;2023-07-28T01:57:26;99237.08;;;16.70;100.00
54600;BME280;40500;51.084;16.958;2023-07-28T01:59:59;99246.79;;;16.70;100.00
54600;BME280;40500;51.084;16.958;2023-07-28T02:02:41;99252.45;;;16.70;100.00
54600;BME280;40500;51.084;16.958;2023-07-28T02:05:28;99253.70;;;16.70;100.00
54600;BME280;40500;51.084;16.958;2023-07-28T02:07:59;99248.37;;;16.70;100.00
54600;BME280;40500;51.084;16.958;2023-07-28T02:10:30;99255.64;;;16.70;100.00
54600;BME280;40500;51.084;16.958;2023-07-28T02:13:03;99258.88;;;16.69;100.00
54600;BME280;40500;51.084;16.958;2023-07-28T02:15:35;99253.42;;;16.69;100.00
54600;BME280;40500;51.084;16.958;2023-07-28T02:18:09;99250.61;;;16.68;100.00
54600;BME280;40500;51.084;16.958;2023-07-28T02:20:40;99248.02;;;16.68;100.00
54600;BME280;40500;51.084;16.958;2023-07-28T02:23:12;99249.81;;;16.67;100.00
54600;BME280;40500;51.084;16.958;2023-07-28T02:25:43;99254.11;;;16.66;100.00
54600;BME280;40500;51.084;16.958;2023-07-28T02:28:14;99259.94;;;16.66;100.00
54600;BME280;40500;51.084;16.958;2023-07-28T02:30:45;99260.52;;;16.65;100.00
54600;BME280;40500;51.084;16.958;2023-07-28T02:33:16;99262.52;;;16.65;100.00
54600;BME280;40500;51.084;16.958;2023-07-28T02:35:47;99254.68;;;16.65;100.00
54600;BME280;40500;51.084;16.958;2023-07-28T02:38:20;99254.61;;;16.67;100.00
54600;BME280;40500;51.084;16.958;2023-07-28T02:40:50;99253.77;;;16.66;100.00
54600;BME280;40500;51.084;16.958;2023-07-28T02:43:22;99252.27;;;16.64;100.00
54600;BME280;40500;51.084;16.958;2023-07-28T02:45:57;99245.30;;;16.62;100.00
54600;BME280;40500;51.084;16.958;2023-07-28T02:48:34;99244.34;;;16.60;100.00
54600;BME280;40500;51.084;16.958;2023-07-28T02:51:05;99246.59;;;16.61;100.00
54600;BME280;40500;51.084;16.958;2023-07-28T02:53:37;99239.86;;;16.61;100.00
54600;BME280;40500;51.084;16.958;2023-07-28T02:56:08;99237.91;;;16.61;100.00
54600;BME280;40500;51.084;16.958;2023-07-28T02:58:39;99237.98;;;16.64;100.00
54600;BME280;40500;51.084;16.958;2023-07-28T03:01:09;99240.88;;;16.66;100.00
54600;BME280;40500;51.084;16.958;2023-07-28T03:03:42;99243.80;;;16.67;100.00
54600;BME280;40500;51.084;16.958;2023-07-28T03:06:20;99248.52;;;16.68;100.00
54600;BME280;40500;51.084;16.958;2023-07-28T03:08:51;99249.71;;;16.69;100.00
54600;BME280;40500;51.084;16.958;2023-07-28T03:11:36;99249.80;;;16.67;100.00
54600;BME280;40500;51.084;16.958;2023-07-28T03:14:07;99255.58;;;16.68;100.00
54600;BME280;40500;51.084;16.958;2023-07-28T03:16:37;99252.28;;;16.67;100.00
54600;BME280;40500;51.084;16.958;2023-07-28T03:19:09;99254.45;;;16.66;100.00
54600;BME280;40500;51.084;16.958;2023-07-28T03:21:43;99259.83;;;16.65;100.00
54600;BME280;40500;51.084;16.958;2023-07-28T03:24:14;99258.48;;;16.64;100.00
54600;BME280;40500;51.084;16.958;2023-07-28T03:26:48;99257.86;;;16.62;100.00
54600;BME280;40500;51.084;16.958;2023-07-28T03:29:21;99257.88;;;16.62;100.00
54600;BME280;40500;51.084;16.958;2023-07-28T03:31:54;99256.45;;;16.62;100.00
54600;BME280;40500;51.084;16.958;2023-07-28T03:34:29;99257.77;;;16.61;100.00
54600;BME280;40500;51.084;16.958;2023-07-28T03:37:01;99255.42;;;16.61;100.00
54600;BME280;40500;51.084;16.958;2023-07-28T03:39:34;99255.42;;;16.61;100.00
54600;BME280;40500;51.084;16.958;2023-07-28T03:42:05;99254.58;;;16.61;100.00
54600;BME280;40500;51.084;16.958;2023-07-28T03:44:40;99252.85;;;16.60;100.00
54600;BME280;40500;51.084;16.958;2023-07-28T03:47:13;99246.64;;;16.60;100.00
54600;BME280;40500;51.084;16.958;2023-07-28T03:49:46;99243.05;;;16.61;100.00
54600;BME280;40500;51.084;16.958;2023-07-28T03:52:18;99234.70;;;16.62;100.00
54600;BME280;40500;51.084;16.958;2023-07-28T03:54:49;99233.27;;;16.66;100.00
54600;BME280;40500;51.084;16.958;2023-07-28T03:57:21;99233.72;;;16.67;100.00
54600;BME280;40500;51.084;16.958;2023-07-28T03:59:51;99233.20;;;16.67;100.00
54600;BME280;40500;51.084;16.958;2023-07-28T04:02:24;99230.05;;;16.69;100.00
54600;BME280;40500;51.084;16.958;2023-07-28T04:04:57;99229.20;;;16.72;100.00
54600;BME280;40500;51.084;16.958;2023-07-28T04:07:29;99224.44;;;16.74;100.00
54600;BME280;40500;51.084;16.958;2023-07-28T04:10:00;99219.67;;;16.77;100.00
54600;BME280;40500;51.084;16.958;2023-07-28T04:12:31;99212.84;;;16.79;100.00
54600;BME280;40500;51.084;16.958;2023-07-28T04:15:01;99215.87;;;16.82;100.00
54600;BME280;40500;51.084;16.958;2023-07-28T04:17:44;99210.20;;;16.85;100.00
54600;BME280;40500;51.084;16.958;2023-07-28T04:20:16;99202.95;;;16.88;100.00
54600;BME280;40500;51.084;16.958;2023-07-28T04:22:46;99209.67;;;16.91;100.00
54600;BME280;40500;51.084;16.958;2023-07-28T04:25:17;99200.53;;;16.93;100.00
54600;BME280;40500;51.084;16.958;2023-07-28T04:27:55;99200.16;;;16.96;100.00
54600;BME280;40500;51.084;16.958;2023-07-28T04:30:31;99205.50;;;16.98;100.00
54600;BME280;40500;51.084;16.958;2023-07-28T04:33:02;99201.89;;;16.99;100.00
54600;BME280;40500;51.084;16.958;2023-07-28T04:35:37;99201.95;;;17.02;100.00
54600;BME280;40500;51.084;16.958;2023-07-28T04:38:17;99196.45;;;17.05;100.00
54600;BME280;40500;51.084;16.958;2023-07-28T04:40:57;99197.48;;;17.08;100.00
54600;BME280;40500;51.084;16.958;2023-07-28T04:43:44;99208.91;;;17.12;100.00
54600;BME280;40500;51.084;16.958;2023-07-28T04:46:16;99203.44;;;17.15;100.00
54600;BME280;40500;51.084;16.958;2023-07-28T04:48:56;99203.34;;;17.16;100.00
54600;BME280;40500;51.084;16.958;2023-07-28T04:51:48;99206.04;;;17.18;100.00
54600;BME280;40500;51.084;16.958;2023-07-28T04:54:35;99207.12;;;17.21;100.00
54600;BME280;40500;51.084;16.958;2023-07-28T04:57:08;99201.83;;;17.23;100.00
54600;BME280;40500;51.084;16.958;2023-07-28T04:59:42;99210.66;;;17.26;100.00
54600;BME280;40500;51.084;16.958;2023-07-28T05:02:14;99215.48;;;17.29;100.00
54600;BME280;40500;51.084;16.958;2023-07-28T05:04:45;99219.45;;;17.27;100.00
54600;BME280;40500;51.084;16.958;2023-07-28T05:07:15;99227.75;;;17.25;100.00
54600;BME280;40500;51.084;16.958;2023-07-28T05:09:47;99228.07;;;17.20;100.00
54600;BME280;40500;51.084;16.958;2023-07-28T05:12:24;99231.25;;;17.14;100.00
54600;BME280;40500;51.084;16.958;2023-07-28T05:14:57;99230.55;;;17.11;100.00
54600;BME280;40500;51.084;16.958;2023-07-28T05:17:29;99230.88;;;17.09;100.00
54600;BME280;40500;51.084;16.958;2023-07-28T05:20:19;99228.55;;;17.03;100.00
54600;BME280;40500;51.084;16.958;2023-07-28T05:23:18;99226.08;;;17.06;100.00
54600;BME280;40500;51.084;16.958;2023-07-28T05:25:49;99227.77;;;17.07;100.00
54600;BME280;40500;51.084;16.958;2023-07-28T05:28:22;99226.99;;;17.09;100.00
54600;BME280;40500;51.084;16.958;2023-07-28T05:31:02;99224.81;;;17.10;100.00
54600;BME280;40500;51.084;16.958;2023-07-28T05:33:38;99227.38;;;17.14;100.00
54600;BME280;40500;51.084;16.958;2023-07-28T05:36:09;99218.31;;;17.17;100.00
54600;BME280;40500;51.084;16.958;2023-07-28T05:38:39;99212.30;;;17.23;100.00
54600;BME280;40500;51.084;16.958;2023-07-28T05:41:10;99213.58;;;17.28;100.00
54600;BME280;40500;51.084;16.958;2023-07-28T05:43:41;99212.88;;;17.31;100.00
54600;BME280;40500;51.084;16.958;2023-07-28T05:46:14;99214.50;;;17.33;100.00
54600;BME280;40500;51.084;16.958;2023-07-28T05:48:53;99221.80;;;17.35;100.00
54600;BME280;40500;51.084;16.958;2023-07-28T05:51:24;99218.84;;;17.37;100.00
54600;BME280;40500;51.084;16.958;2023-07-28T05:54:02;99216.84;;;17.41;100.00
54600;BME280;40500;51.084;16.958;2023-07-28T05:56:36;99216.67;;;17.44;100.00
54600;BME280;40500;51.084;16.958;2023-07-28T05:59:07;99221.24;;;17.50;100.00
54600;BME280;40500;51.084;16.958;2023-07-28T06:01:37;99227.55;;;17.56;100.00
54600;BME280;40500;51.084;16.958;2023-07-28T06:04:27;99224.17;;;17.65;100.00
54600;BME280;40500;51.084;16.958;2023-07-28T06:07:00;99225.94;;;17.70;100.00
54600;BME280;40500;51.084;16.958;2023-07-28T06:09:30;99223.64;;;17.75;100.00
54600;BME280;40500;51.084;16.958;2023-07-28T06:12:03;99224.89;;;17.81;100.00
54600;BME280;40500;51.084;16.958;2023-07-28T06:14:35;99225.55;;;17.88;100.00
54600;BME280;40500;51.084;16.958;2023-07-28T06:17:08;99226.21;;;17.94;100.00
54600;BME280;40500;51.084;16.958;2023-07-28T06:19:39;99227.02;;;17.98;100.00
54600;BME280;40500;51.084;16.958;2023-07-28T06:22:11;99229.29;;;18.01;100.00
54600;BME280;40500;51.084;16.958;2023-07-28T06:24:45;99233.68;;;18.05;100.00
54600;BME280;40500;51.084;16.958;2023-07-28T06:27:16;99227.52;;;18.09;100.00
54600;BME280;40500;51.084;16.958;2023-07-28T06:29:48;99230.40;;;18.11;100.00
54600;BME280;40500;51.084;16.958;2023-07-28T06:32:20;99228.96;;;18.12;100.00
54600;BME280;40500;51.084;16.958;2023-07-28T06:34:56;99231.52;;;18.10;100.00
54600;BME280;40500;51.084;16.958;2023-07-28T06:37:35;99235.96;;;18.10;100.00
54600;BME280;40500;51.084;16.958;2023-07-28T06:40:08;99240.66;;;18.14;100.00
54600;BME280;40500;51.084;16.958;2023-07-28T06:42:39;99239.34;;;18.21;100.00
54600;BME280;40500;51.084;16.958;2023-07-28T06:45:13;99235.34;;;18.28;100.00
54600;BME280;40500;51.084;16.958;2023-07-28T06:47:45;99237.20;;;18.32;100.00
54600;BME280;40500;51.084;16.958;2023-07-28T06:50:21;99236.34;;;18.37;100.00
54600;BME280;40500;51.084;16.958;2023-07-28T06:52:51;99238.35;;;18.39;100.00
54600;BME280;40500;51.084;16.958;2023-07-28T06:55:25;99238.71;;;18.41;100.00
54600;BME280;40500;51.084;16.958;2023-07-28T06:57:57;99236.13;;;18.45;100.00
54600;BME280;40500;51.084;16.958;2023-07-28T07:00:28;99236.58;;;18.49;100.00
54600;BME280;40500;51.084;16.958;2023-07-28T07:03:03;99238.95;;;18.51;100.00
54600;BME280;40500;51.084;16.958;2023-07-28T07:05:35;99242.40;;;18.54;100.00
54600;BME280;40500;51.084;16.958;2023-07-28T07:08:23;99242.76;;;18.63;100.00
54600;BME280;40500;51.084;16.958;2023-07-28T07:11:01;99244.08;;;18.69;100.00
54600;BME280;40500;51.084;16.958;2023-07-28T07:13:31;99250.73;;;18.79;100.00
54600;BME280;40500;51.084;16.958;2023-07-28T07:16:02;99255.08;;;18.90;100.00
54600;BME280;40500;51.084;16.958;2023-07-28T07:18:34;99254.68;;;19.01;100.00
54600;BME280;40500;51.084;16.958;2023-07-28T07:21:07;99256.88;;;19.16;100.00
54600;BME280;40500;51.084;16.958;2023-07-28T07:23:39;99251.98;;;19.25;100.00
54600;BME280;40500;51.084;16.958;2023-07-28T07:26:27;99257.82;;;19.28;100.00
54600;BME280;40500;51.084;16.958;2023-07-28T07:28:59;99259.34;;;19.36;100.00
54600;BME280;40500;51.084;16.958;2023-07-28T07:31:32;99258.42;;;19.45;100.00
54600;BME280;40500;51.084;16.958;2023-07-28T07:34:03;99261.66;;;19.47;100.00
54600;BME280;40500;51.084;16.958;2023-07-28T07:36:34;99266.74;;;19.48;100.00
54600;BME280;40500;51.084;16.958;2023-07-28T07:39:13;99261.52;;;19.49;100.00
54600;BME280;40500;51.084;16.958;2023-07-28T07:41:47;99265.33;;;19.50;100.00
54600;BME280;40500;51.084;16.958;2023-07-28T07:44:19;99266.25;;;19.57;100.00
54600;BME280;40500;51.084;16.958;2023-07-28T07:47:12;99269.05;;;19.72;100.00
54600;BME280;40500;51.084;16.958;2023-07-28T07:49:59;99270.77;;;19.84;100.00
54600;BME280;40500;51.084;16.958;2023-07-28T07:52:38;99274.59;;;19.85;100.00
54600;BME280;40500;51.084;16.958;2023-07-28T07:55:12;99274.38;;;19.83;100.00
54600;BME280;40500;51.084;16.958;2023-07-28T07:57:42;99274.64;;;19.82;100.00
54600;BME280;40500;51.084;16.958;2023-07-28T08:00:22;99278.02;;;19.79;100.00
54600;BME280;40500;51.084;16.958;2023-07-28T08:02:53;99275.66;;;19.74;100.00
54600;BME280;40500;51.084;16.958;2023-07-28T08:05:25;99274.37;;;19.75;100.00
54600;BME280;40500;51.084;16.958;2023-07-28T08:07:56;99275.95;;;19.73;100.00
54600;BME280;40500;51.084;16.958;2023-07-28T08:10:27;99280.63;;;19.67;100.00
54600;BME280;40500;51.084;16.958;2023-07-28T08:12:59;99292.31;;;19.57;100.00
54600;BME280;40500;51.084;16.958;2023-07-28T08:15:33;99289.67;;;19.52;100.00
54600;BME280;40500;51.084;16.958;2023-07-28T08:18:04;99283.64;;;19.59;100.00
54600;BME280;40500;51.084;16.958;2023-07-28T08:20:35;99285.88;;;19.70;100.00
54600;BME280;40500;51.084;16.958;2023-07-28T08:23:07;99284.38;;;19.77;100.00
54600;BME280;40500;51.084;16.958;2023-07-28T08:25:43;99291.16;;;19.82;100.00
54600;BME280;40500;51.084;16.958;2023-07-28T08:28:13;99286.70;;;19.82;100.00
54600;BME280;40500;51.084;16.958;2023-07-28T08:30:56;99286.71;;;19.89;100.00
54600;BME280;40500;51.084;16.958;2023-07-28T08:33:28;99286.66;;;20.02;100.00
54600;BME280;40500;51.084;16.958;2023-07-28T08:36:01;99285.45;;;20.06;100.00
54600;BME280;40500;51.084;16.958;2023-07-28T08:38:33;99283.45;;;20.05;100.00
54600;BME280;40500;51.084;16.958;2023-07-28T08:41:04;99287.25;;;20.04;100.00
54600;BME280;40500;51.084;16.958;2023-07-28T08:43:54;99288.17;;;20.05;100.00
54600;BME280;40500;51.084;16.958;2023-07-28T08:46:41;99293.98;;;20.01;100.00
54600;BME280;40500;51.084;16.958;2023-07-28T08:49:13;99300.05;;;20.01;100.00
54600;BME280;40500;51.084;16.958;2023-07-28T08:51:43;99306.17;;;19.97;100.00
54600;BME280;40500;51.084;16.958;2023-07-28T08:54:29;99314.67;;;19.93;100.00
54600;BME280;40500;51.084;16.958;2023-07-28T08:57:00;99313.64;;;19.85;100.00
54600;BME280;40500;51.084;16.958;2023-07-28T08:59:32;99311.10;;;19.88;100.00
54600;BME280;40500;51.084;16.958;2023-07-28T09:02:10;99308.73;;;20.04;100.00
54600;BME280;40500;51.084;16.958;2023-07-28T09:04:43;99310.46;;;20.12;100.00
54600;BME280;40500;51.084;16.958;2023-07-28T09:07:44;99309.89;;;20.27;100.00
54600;BME280;40500;51.084;16.958;2023-07-28T09:10:54;99308.27;;;20.47;100.00
54600;BME280;40500;51.084;16.958;2023-07-28T09:13:36;99307.16;;;20.83;100.00
54600;BME280;40500;51.084;16.958;2023-07-28T09:16:18;99302.84;;;20.93;100.00
54600;BME280;40500;51.084;16.958;2023-07-28T09:19:07;99303.05;;;20.85;100.00
54600;BME280;40500;51.084;16.958;2023-07-28T09:21:45;99301.22;;;20.84;100.00
54600;BME280;40500;51.084;16.958;2023-07-28T09:24:18;99298.89;;;20.80;100.00
54600;BME280;40500;51.084;16.958;2023-07-28T09:26:48;99299.93;;;20.78;100.00
54600;BME280;40500;51.084;16.958;2023-07-28T09:29:29;99303.95;;;20.79;100.00
54600;BME280;40500;51.084;16.958;2023-07-28T09:32:07;99302.73;;;20.81;100.00
54600;BME280;40500;51.084;16.958;2023-07-28T09:35:07;99294.47;;;20.96;100.00
54600;BME280;40500;51.084;16.958;2023-07-28T09:37:47;99292.02;;;21.25;100.00
54600;BME280;40500;51.084;16.958;2023-07-28T09:40:20;99286.47;;;21.46;100.00
54600;BME280;40500;51.084;16.958;2023-07-28T09:42:53;99288.98;;;21.60;100.00
54600;BME280;40500;51.084;16.958;2023-07-28T09:45:26;99284.76;;;21.54;100.00
54600;BME280;40500;51.084;16.958;2023-07-28T09:48:08;99291.65;;;21.51;100.00
54600;BME280;40500;51.084;16.958;2023-07-28T09:50:43;99295.45;;;21.54;100.00
54600;BME280;40500;51.084;16.958;2023-07-28T09:53:16;99291.58;;;21.72;100.00
54600;BME280;40500;51.084;16.958;2023-07-28T09:55:49;99287.17;;;21.91;100.00
54600;BME280;40500;51.084;16.958;2023-07-28T09:58:22;99290.71;;;22.11;100.00
54600;BME280;40500;51.084;16.958;2023-07-28T10:00:55;99292.44;;;22.26;100.00
54600;BME280;40500;51.084;16.958;2023-07-28T10:03:26;99286.36;;;22.28;100.00
54600;BME280;40500;51.084;16.958;2023-07-28T10:05:57;99288.58;;;22.27;100.00
54600;BME280;40500;51.084;16.958;2023-07-28T10:08:28;99282.31;;;22.34;100.00
54600;BME280;40500;51.084;16.958;2023-07-28T10:11:00;99281.70;;;22.30;100.00
54600;BME280;40500;51.084;16.958;2023-07-28T10:13:41;99280.84;;;22.32;100.00
54600;BME280;40500;51.084;16.958;2023-07-28T10:16:12;99280.08;;;22.45;100.00
54600;BME280;40500;51.084;16.958;2023-07-28T10:18:53;99280.73;;;22.48;100.00
54600;BME280;40500;51.084;16.958;2023-07-28T10:21:28;99278.16;;;22.52;100.00
54600;BME280;40500;51.084;16.958;2023-07-28T10:24:01;99277.31;;;22.55;100.00
54600;BME280;40500;51.084;16.958;2023-07-28T10:26:36;99275.92;;;22.72;100.00
54600;BME280;40500;51.084;16.958;2023-07-28T10:29:12;99271.89;;;22.96;100.00
54600;BME280;40500;51.084;16.958;2023-07-28T10:31:54;99272.00;;;23.20;100.00
54600;BME280;40500;51.084;16.958;2023-07-28T10:34:27;99268.95;;;23.35;100.00
54600;BME280;40500;51.084;16.958;2023-07-28T10:36:59;99267.34;;;23.37;100.00
54600;BME280;40500;51.084;16.958;2023-07-28T10:39:30;99273.05;;;23.49;100.00
54600;BME280;40500;51.084;16.958;2023-07-28T10:42:09;99278.30;;;23.57;100.00
54600;BME280;40500;51.084;16.958;2023-07-28T10:44:39;99277.05;;;23.73;100.00
54600;BME280;40500;51.084;16.958;2023-07-28T10:47:11;99271.17;;;23.77;100.00
54600;BME280;40500;51.084;16.958;2023-07-28T10:49:43;99279.23;;;23.83;100.00
54600;BME280;40500;51.084;16.958;2023-07-28T10:52:18;99272.83;;;23.90;100.00
54600;BME280;40500;51.084;16.958;2023-07-28T10:54:49;99274.86;;;23.94;100.00
54600;BME280;40500;51.084;16.958;2023-07-28T10:57:20;99275.46;;;24.01;100.00
54600;BME280;40500;51.084;16.958;2023-07-28T10:59:51;99273.25;;;24.10;100.00
54600;BME280;40500;51.084;16.958;2023-07-28T11:02:22;99267.77;;;24.23;100.00
54600;BME280;40500;51.084;16.958;2023-07-28T11:04:52;99270.47;;;24.29;100.00
54600;BME280;40500;51.084;16.958;2023-07-28T11:07:24;99271.75;;;24.38;100.00
54600;BME280;40500;51.084;16.958;2023-07-28T11:09:56;99263.63;;;24.33;100.00
54600;BME280;40500;51.084;16.958;2023-07-28T11:12:29;99258.92;;;24.36;100.00
54600;BME280;40500;51.084;16.958;2023-07-28T11:15:00;99255.41;;;24.51;100.00
54600;BME280;40500;51.084;16.958;2023-07-28T11:17:31;99264.28;;;24.65;100.00
54600;BME280;40500;51.084;16.958;2023-07-28T11:20:01;99262.33;;;24.59;100.00
54600;BME280;40500;51.084;16.958;2023-07-28T11:22:32;99259.36;;;24.50;100.00
54600;BME280;40500;51.084;16.958;2023-07-28T11:25:10;99256.46;;;24.47;100.00
54600;BME280;40500;51.084;16.958;2023-07-28T11:27:49;99251.43;;;24.61;100.00
54600;BME280;40500;51.084;16.958;2023-07-28T11:30:21;99251.79;;;24.84;100.00
54600;BME280;40500;51.084;16.958;2023-07-28T11:32:52;99247.27;;;25.14;100.00
54600;BME280;40500;51.084;16.958;2023-07-28T11:35:24;99252.63;;;25.22;100.00
54600;BME280;40500;51.084;16.958;2023-07-28T11:37:54;99248.85;;;25.25;100.00
54600;BME280;40500;51.084;16.958;2023-07-28T11:40:26;99250.81;;;25.47;100.00
54600;BME280;40500;51.084;16.958;2023-07-28T11:42:57;99241.52;;;25.68;100.00
54600;BME280;40500;51.084;16.958;2023-07-28T11:45:29;99243.67;;;25.99;100.00
54600;BME280;40500;51.084;16.958;2023-07-28T11:48:02;99243.67;;;26.10;100.00
54600;BME280;40500;51.084;16.958;2023-07-28T11:50:37;99238.34;;;26.02;100.00
54600;BME280;40500;51.084;16.958;2023-07-28T11:53:09;99237.60;;;25.87;100.00
54600;BME280;40500;51.084;16.958;2023-07-28T11:55:40;99234.33;;;26.01;100.00
54600;BME280;40500;51.084;16.958;2023-07-28T11:58:13;99236.02;;;26.13;100.00
54600;BME280;40500;51.084;16.958;2023-07-28T12:00:45;99236.17;;;26.24;100.00
54600;BME280;40500;51.084;16.958;2023-07-28T12:03:16;99241.17;;;26.26;100.00
54600;BME280;40500;51.084;16.958;2023-07-28T12:06:05;99246.32;;;26.14;100.00
54600;BME280;40500;51.084;16.958;2023-07-28T12:09:08;99234.20;;;26.06;100.00
54600;BME280;40500;51.084;16.958;2023-07-28T12:11:44;99231.77;;;26.25;100.00
54600;BME280;40500;51.084;16.958;2023-07-28T12:14:17;99236.24;;;26.39;100.00
54600;BME280;40500;51.084;16.958;2023-07-28T12:17:05;99237.48;;;26.43;100.00
54600;BME280;40500;51.084;16.958;2023-07-28T12:19:57;99243.34;;;26.56;99.79
54600;BME280;40500;51.084;16.958;2023-07-28T12:22:30;99240.34;;;26.63;99.73
54600;BME280;40500;51.084;16.958;2023-07-28T12:25:01;99245.04;;;26.45;99.96
54600;BME280;40500;51.084;16.958;2023-07-28T12:27:32;99244.98;;;26.27;100.00
54600;BME280;40500;51.084;16.958;2023-07-28T12:30:04;99246.36;;;26.35;100.00
54600;BME280;40500;51.084;16.958;2023-07-28T12:32:44;99248.20;;;26.49;100.00
54600;BME280;40500;51.084;16.958;2023-07-28T12:35:17;99247.22;;;27.05;100.00
54600;BME280;40500;51.084;16.958;2023-07-28T12:37:48;99249.06;;;28.44;98.00
54600;BME280;40500;51.084;16.958;2023-07-28T12:40:21;99238.10;;;29.70;85.80
54600;BME280;40500;51.084;16.958;2023-07-28T12:42:56;99237.96;;;30.74;79.18
54600;BME280;40500;51.084;16.958;2023-07-28T12:45:30;99237.40;;;31.64;73.45
54600;BME280;40500;51.084;16.958;2023-07-28T12:48:04;99242.17;;;32.52;66.10
54600;BME280;40500;51.084;16.958;2023-07-28T12:50:48;99247.12;;;33.58;62.12
54600;BME280;40500;51.084;16.958;2023-07-28T12:53:18;99243.93;;;34.19;52.58
54600;BME280;40500;51.084;16.958;2023-07-28T12:55:52;99237.25;;;34.58;53.26
54600;BME280;40500;51.084;16.958;2023-07-28T12:58:25;99242.42;;;35.50;52.27
54600;BME280;40500;51.084;16.958;2023-07-28T13:00:59;99235.38;;;36.50;49.99
54600;BME280;40500;51.084;16.958;2023-07-28T13:03:31;99237.52;;;35.27;48.95
54600;BME280;40500;51.084;16.958;2023-07-28T13:06:18;99238.88;;;33.72;53.32
54600;BME280;40500;51.084;16.958;2023-07-28T13:09:06;99239.48;;;34.47;51.09
54600;BME280;40500;51.084;16.958;2023-07-28T13:11:40;99233.59;;;35.97;47.05
54600;BME280;40500;51.084;16.958;2023-07-28T13:14:13;99236.23;;;37.42;42.49
54600;BME280;40500;51.084;16.958;2023-07-28T13:17:00;99231.65;;;38.81;39.10
54600;BME280;40500;51.084;16.958;2023-07-28T13:19:31;99237.39;;;38.64;35.28